createdAt,value
2023-04-03T00:00:51.195Z,455.00
2023-04-03T00:01:51.186Z,453.00
2023-04-03T00:02:51.195Z,453.00
2023-04-03T00:03:51.242Z,450.00
2023-04-03T00:04:51.135Z,450.00
2023-04-03T00:05:51.101Z,449.00
2023-04-03T00:06:51.096Z,449.00
2023-04-03T00:07:51.070Z,448.00
2023-04-03T00:08:51.076Z,446.00
2023-04-03T00:09:51.049Z,446.00
2023-04-03T00:10:51.022Z,447.00
2023-04-03T00:11:51.005Z,446.00
2023-04-03T00:12:51.040Z,447.00
2023-04-03T00:13:50.963Z,447.00
2023-04-03T00:14:50.941Z,448.00
2023-04-03T00:15:50.910Z,449.00
2023-04-03T00:16:50.935Z,449.00
2023-04-03T00:17:50.938Z,450.00
2023-04-03T00:18:50.861Z,451.00
2023-04-03T00:19:50.860Z,449.00
2023-04-03T00:20:50.833Z,448.00
2023-04-03T00:21:50.820Z,450.00
2023-04-03T00:22:50.803Z,449.00
2023-04-03T00:23:50.795Z,446.00
2023-04-03T00:24:50.768Z,445.00
2023-04-03T00:25:50.756Z,447.00
2023-04-03T00:26:50.750Z,446.00
2023-04-03T00:27:50.703Z,448.00
2023-04-03T00:28:50.715Z,447.00
2023-04-03T00:29:50.661Z,446.00
2023-04-03T00:30:50.651Z,447.00
2023-04-03T00:31:50.629Z,446.00
2023-04-03T00:32:50.687Z,449.00
2023-04-03T00:33:50.579Z,448.00
2023-04-03T00:34:50.560Z,450.00
2023-04-03T00:35:50.684Z,450.00
2023-04-03T00:36:50.667Z,447.00
2023-04-03T00:37:50.517Z,447.00
2023-04-03T00:38:50.497Z,446.00
2023-04-03T00:39:50.465Z,445.00
2023-04-03T00:40:50.503Z,446.00
2023-04-03T00:41:50.422Z,445.00
2023-04-03T00:42:50.399Z,444.00
2023-04-03T00:43:50.385Z,444.00
2023-04-03T00:44:50.373Z,445.00
2023-04-03T00:45:50.398Z,448.00
2023-04-03T00:46:50.383Z,451.00
2023-04-03T00:47:50.412Z,450.00
2023-04-03T00:48:50.392Z,449.00
2023-04-03T00:49:50.388Z,449.00
2023-04-03T00:50:50.396Z,448.00
2023-04-03T00:51:50.395Z,447.00
2023-04-03T00:52:50.394Z,447.00
2023-04-03T00:53:50.410Z,448.00
2023-04-03T00:54:50.407Z,449.00
2023-04-03T00:55:50.400Z,449.00
2023-04-03T00:56:50.411Z,447.00
2023-04-03T00:57:50.376Z,448.00
2023-04-03T00:58:50.385Z,450.00
2023-04-03T00:59:50.358Z,449.00
2023-04-03T01:00:50.338Z,448.00
2023-04-03T01:01:50.356Z,448.00
2023-04-03T01:02:50.308Z,448.00
2023-04-03T01:03:50.336Z,446.00
2023-04-03T01:04:50.274Z,444.00
2023-04-03T01:05:50.258Z,444.00
2023-04-03T01:06:50.235Z,446.00
2023-04-03T01:07:50.238Z,449.00
2023-04-03T01:08:50.206Z,451.00
2023-04-03T01:09:50.163Z,449.00
2023-04-03T01:10:50.151Z,448.00
2023-04-03T01:11:50.127Z,449.00
2023-04-03T01:12:50.115Z,449.00
2023-04-03T01:13:50.112Z,446.00
2023-04-03T01:14:50.067Z,447.00
2023-04-03T01:15:50.092Z,446.00
2023-04-03T01:16:50.036Z,446.00
2023-04-03T01:17:50.091Z,445.00
2023-04-03T01:18:50.011Z,444.00
2023-04-03T01:19:49.970Z,442.00
2023-04-03T01:20:49.958Z,447.00
2023-04-03T01:21:49.947Z,447.00
2023-04-03T01:22:49.960Z,449.00
2023-04-03T01:23:49.973Z,449.00
2023-04-03T01:24:50.010Z,452.00
2023-04-03T01:25:49.983Z,450.00
2023-04-03T01:26:49.989Z,447.00
2023-04-03T01:27:49.995Z,445.00
2023-04-03T01:28:50.005Z,444.00
2023-04-03T01:29:50.034Z,448.00
2023-04-03T01:30:50.015Z,447.00
2023-04-03T01:31:50.164Z,448.00
2023-04-03T01:32:50.069Z,448.00
2023-04-03T01:33:50.043Z,448.00
2023-04-03T01:34:50.072Z,446.00
2023-04-03T01:35:50.046Z,445.00
2023-04-03T01:36:50.021Z,443.00
2023-04-03T01:37:49.997Z,444.00
2023-04-03T01:38:50.016Z,446.00
2023-04-03T01:39:49.969Z,446.00
2023-04-03T01:40:49.953Z,443.00
2023-04-03T01:41:49.938Z,445.00
2023-04-03T01:42:49.926Z,444.00
2023-04-03T01:43:49.914Z,445.00
2023-04-03T01:44:49.896Z,446.00
2023-04-03T01:45:49.897Z,444.00
2023-04-03T01:46:49.873Z,443.00
2023-04-03T01:47:49.869Z,445.00
2023-04-03T01:48:49.830Z,446.00
2023-04-03T01:49:49.801Z,442.00
2023-04-03T01:50:49.796Z,440.00
2023-04-03T01:51:49.777Z,438.00
2023-04-03T01:52:49.752Z,439.00
2023-04-03T01:53:49.749Z,441.00
2023-04-03T01:54:49.725Z,443.00
2023-04-03T01:55:49.716Z,444.00
2023-04-03T01:56:49.719Z,443.00
2023-04-03T01:57:49.720Z,446.00
2023-04-03T01:58:49.656Z,446.00
2023-04-03T01:59:49.646Z,440.00
2023-04-03T02:00:49.717Z,443.00
2023-04-03T02:01:49.616Z,443.00
2023-04-03T02:02:49.657Z,444.00
2023-04-03T02:03:49.672Z,445.00
2023-04-03T02:04:49.629Z,444.00
2023-04-03T02:05:49.626Z,443.00
2023-04-03T02:06:49.638Z,442.00
2023-04-03T02:07:49.690Z,441.00
2023-04-03T02:08:49.676Z,443.00
2023-04-03T02:09:49.704Z,444.00
2023-04-03T02:10:49.717Z,444.00
2023-04-03T02:11:49.733Z,445.00
2023-04-03T02:12:49.759Z,445.00
2023-04-03T02:13:49.700Z,447.00
2023-04-03T02:14:49.676Z,447.00
2023-04-03T02:15:49.658Z,445.00
2023-04-03T02:16:49.651Z,450.00
2023-04-03T02:17:49.658Z,448.00
2023-04-03T02:18:49.623Z,447.00
2023-04-03T02:19:49.609Z,448.00
2023-04-03T02:20:49.585Z,448.00
2023-04-03T02:21:49.598Z,447.00
2023-04-03T02:22:49.559Z,445.00
2023-04-03T02:23:49.571Z,445.00
2023-04-03T02:24:49.541Z,443.00
2023-04-03T02:25:49.528Z,443.00
2023-04-03T02:26:49.522Z,445.00
2023-04-03T02:27:49.516Z,449.00
2023-04-03T02:28:49.487Z,450.00
2023-04-03T02:29:49.493Z,451.00
2023-04-03T02:30:49.519Z,453.00
2023-04-03T02:31:49.460Z,452.00
2023-04-03T02:32:49.559Z,451.00
2023-04-03T02:33:49.447Z,451.00
2023-04-03T02:34:49.446Z,450.00
2023-04-03T02:35:49.493Z,452.00
2023-04-03T02:36:49.409Z,450.00
2023-04-03T02:37:49.411Z,450.00
2023-04-03T02:38:49.401Z,450.00
2023-04-03T02:39:49.382Z,448.00
2023-04-03T02:40:49.374Z,449.00
2023-04-03T02:41:49.363Z,452.00
2023-04-03T02:42:49.345Z,455.00
2023-04-03T02:43:49.346Z,457.00
2023-04-03T02:44:49.325Z,453.00
2023-04-03T02:45:49.334Z,452.00
2023-04-03T02:46:49.300Z,451.00
2023-04-03T02:47:49.318Z,451.00
2023-04-03T02:48:49.265Z,455.00
2023-04-03T02:49:49.258Z,457.00
2023-04-03T02:50:49.239Z,457.00
2023-04-03T02:51:49.233Z,455.00
2023-04-03T02:52:49.219Z,453.00
2023-04-03T02:53:49.210Z,453.00
2023-04-03T02:54:49.195Z,454.00
2023-04-03T02:55:49.189Z,454.00
2023-04-03T02:56:49.191Z,452.00
2023-04-03T02:57:49.132Z,452.00
2023-04-03T02:58:49.110Z,449.00
2023-04-03T02:59:49.103Z,454.00
2023-04-03T03:00:49.107Z,453.00
2023-04-03T03:01:49.282Z,451.00
2023-04-03T03:02:49.223Z,452.00
2023-04-03T03:03:49.222Z,448.00
2023-04-03T03:04:49.290Z,444.00
2023-04-03T03:05:49.341Z,445.00
2023-04-03T03:06:49.385Z,440.00
2023-04-03T03:07:49.460Z,441.00
2023-04-03T03:08:49.505Z,439.00
2023-04-03T03:09:49.595Z,442.00
2023-04-03T03:10:49.604Z,444.00
2023-04-03T03:11:49.668Z,444.00
2023-04-03T03:12:49.729Z,443.00
2023-04-03T03:13:49.788Z,443.00
2023-04-03T03:14:49.854Z,443.00
2023-04-03T03:15:49.943Z,440.00
2023-04-03T03:16:49.991Z,436.00
2023-04-03T03:17:50.006Z,436.00
2023-04-03T03:18:49.981Z,436.00
2023-04-03T03:19:49.989Z,433.00
2023-04-03T03:20:49.989Z,432.00
2023-04-03T03:21:49.982Z,431.00
2023-04-03T03:22:50.015Z,432.00
2023-04-03T03:23:49.989Z,432.00
2023-04-03T03:24:49.989Z,432.00
2023-04-03T03:25:49.993Z,435.00
2023-04-03T03:26:49.975Z,433.00
2023-04-03T03:27:49.972Z,431.00
2023-04-03T03:28:49.971Z,430.00
2023-04-03T03:29:50.005Z,430.00
2023-04-03T03:30:50.046Z,427.00
2023-04-03T03:31:50.162Z,427.00
2023-04-03T03:32:50.200Z,429.00
2023-04-03T03:33:50.163Z,429.00
2023-04-03T03:34:50.283Z,429.00
2023-04-03T03:35:50.255Z,434.00
2023-04-03T03:36:50.313Z,432.00
2023-04-03T03:37:50.362Z,434.00
2023-04-03T03:38:50.419Z,435.00
2023-04-03T03:39:50.481Z,436.00
2023-04-03T03:40:50.539Z,436.00
2023-04-03T03:41:50.584Z,432.00
2023-04-03T03:42:50.612Z,434.00
2023-04-03T03:43:50.699Z,433.00
2023-04-03T03:44:50.714Z,431.00
2023-04-03T03:45:50.706Z,432.00
2023-04-03T03:46:50.821Z,433.00
2023-04-03T03:47:50.813Z,435.00
2023-04-03T03:48:50.823Z,430.00
2023-04-03T03:49:50.870Z,431.00
2023-04-03T03:50:50.928Z,430.00
2023-04-03T03:51:50.949Z,431.00
2023-04-03T03:52:50.978Z,434.00
2023-04-03T03:53:51.016Z,433.00
2023-04-03T03:54:51.029Z,432.00
2023-04-03T03:55:51.048Z,434.00
2023-04-03T03:56:51.087Z,433.00
2023-04-03T03:57:51.107Z,433.00
2023-04-03T03:58:51.163Z,429.00
2023-04-03T03:59:51.182Z,431.00
2023-04-03T04:00:51.217Z,431.00
2023-04-03T04:01:51.228Z,432.00
2023-04-03T04:02:51.281Z,433.00
2023-04-03T04:03:51.352Z,434.00
2023-04-03T04:04:51.274Z,434.00
2023-04-03T04:05:51.306Z,435.00
2023-04-03T04:06:51.293Z,437.00
2023-04-03T04:07:51.303Z,436.00
2023-04-03T04:08:51.322Z,432.00
2023-04-03T04:09:51.335Z,434.00
2023-04-03T04:10:51.348Z,433.00
2023-04-03T04:11:51.359Z,434.00
2023-04-03T04:12:51.352Z,432.00
2023-04-03T04:13:51.369Z,432.00
2023-04-03T04:14:51.371Z,433.00
2023-04-03T04:15:51.396Z,430.00
2023-04-03T04:16:51.414Z,432.00
2023-04-03T04:17:51.430Z,430.00
2023-04-03T04:18:51.401Z,430.00
2023-04-03T04:19:51.420Z,430.00
2023-04-03T04:20:51.426Z,429.00
2023-04-03T04:21:51.439Z,428.00
2023-04-03T04:22:51.529Z,429.00
2023-04-03T04:23:51.454Z,427.00
2023-04-03T04:24:51.463Z,427.00
2023-04-03T04:25:51.500Z,425.00
2023-04-03T04:26:51.477Z,430.00
2023-04-03T04:27:51.494Z,428.00
2023-04-03T04:28:51.500Z,427.00
2023-04-03T04:29:51.539Z,427.00
2023-04-03T04:30:51.637Z,428.00
2023-04-03T04:31:51.533Z,434.00
2023-04-03T04:32:51.663Z,436.00
2023-04-03T04:33:51.582Z,438.00
2023-04-03T04:34:51.599Z,434.00
2023-04-03T04:35:51.672Z,435.00
2023-04-03T04:36:51.740Z,434.00
2023-04-03T04:37:51.597Z,434.00
2023-04-03T04:38:51.610Z,436.00
2023-04-03T04:39:51.613Z,437.00
2023-04-03T04:40:51.632Z,436.00
2023-04-03T04:41:51.653Z,439.00
2023-04-03T04:42:51.653Z,439.00
2023-04-03T04:43:51.683Z,438.00
2023-04-03T04:44:51.685Z,439.00
2023-04-03T04:45:51.720Z,438.00
2023-04-03T04:46:51.740Z,435.00
2023-04-03T04:47:51.818Z,435.00
2023-04-03T04:48:51.774Z,435.00
2023-04-03T04:49:51.778Z,435.00
2023-04-03T04:50:51.776Z,433.00
2023-04-03T04:51:52.459Z,432.00
2023-04-03T04:52:51.816Z,433.00
2023-04-03T04:53:52.760Z,429.00
2023-04-03T04:54:51.819Z,427.00
2023-04-03T04:55:51.848Z,428.00
2023-04-03T04:56:51.899Z,430.00
2023-04-03T04:57:51.852Z,433.00
2023-04-03T04:58:51.860Z,432.00
2023-04-03T04:59:51.890Z,432.00
2023-04-03T05:00:51.910Z,430.00
2023-04-03T05:01:51.981Z,428.00
2023-04-03T05:02:51.999Z,428.00
2023-04-03T05:03:51.999Z,427.00
2023-04-03T05:04:52.074Z,428.00
2023-04-03T05:05:52.055Z,427.00
2023-04-03T05:06:52.079Z,426.00
2023-04-03T05:07:52.098Z,427.00
2023-04-03T05:08:52.112Z,426.00
2023-04-03T05:09:52.115Z,431.00
2023-04-03T05:10:53.686Z,434.00
2023-04-03T05:11:52.393Z,432.00
2023-04-03T05:12:52.443Z,435.00
2023-04-03T05:13:52.464Z,436.00
2023-04-03T05:14:52.497Z,437.00
2023-04-03T05:15:52.565Z,439.00
2023-04-03T05:16:52.776Z,436.00
2023-04-03T05:17:52.735Z,437.00
2023-04-03T05:18:52.636Z,434.00
2023-04-03T05:19:52.682Z,432.00
2023-04-03T05:20:52.713Z,429.00
2023-04-03T05:21:52.760Z,428.00
2023-04-03T05:22:52.791Z,432.00
2023-04-03T05:23:52.819Z,432.00
2023-04-03T05:24:52.854Z,433.00
2023-04-03T05:25:52.889Z,435.00
2023-04-03T05:26:52.930Z,433.00
2023-04-03T05:27:52.960Z,433.00
2023-04-03T05:28:52.975Z,433.00
2023-04-03T05:29:52.999Z,434.00
2023-04-03T05:30:53.033Z,435.00
2023-04-03T05:31:53.254Z,434.00
2023-04-03T05:32:53.155Z,434.00
2023-04-03T05:33:53.138Z,434.00
2023-04-03T05:34:53.183Z,436.00
2023-04-03T05:35:53.248Z,433.00
2023-04-03T05:36:53.257Z,434.00
2023-04-03T05:37:53.293Z,436.00
2023-04-03T05:38:53.320Z,436.00
2023-04-03T05:39:53.364Z,438.00
2023-04-03T05:42:12.563Z,448.00
2023-04-03T05:43:12.562Z,443.00
2023-04-03T05:44:12.568Z,446.00
2023-04-03T05:45:12.562Z,445.00
2023-04-03T05:46:12.585Z,445.00
2023-04-03T05:47:12.584Z,444.00
2023-04-03T05:48:12.599Z,444.00
2023-04-03T05:49:12.575Z,444.00
2023-04-03T05:50:12.559Z,445.00
2023-04-03T05:51:12.550Z,444.00
2023-04-03T05:52:12.553Z,445.00
2023-04-03T05:53:12.550Z,446.00
2023-04-03T05:54:12.548Z,448.00
2023-04-03T05:55:12.550Z,451.00
2023-04-03T05:56:12.609Z,449.00
2023-04-03T05:57:12.595Z,448.00
2023-04-03T05:58:12.551Z,443.00
2023-04-03T05:59:12.555Z,441.00
2023-04-03T06:00:12.559Z,440.00
2023-04-03T06:01:12.561Z,437.00
2023-04-03T06:02:12.561Z,437.00
2023-04-03T06:03:12.735Z,434.00
2023-04-03T06:04:12.683Z,437.00
2023-04-03T06:05:13.169Z,440.00
2023-04-03T06:06:12.569Z,443.00
2023-04-03T06:07:12.574Z,441.00
2023-04-03T06:08:12.573Z,439.00
2023-04-03T06:09:12.584Z,442.00
2023-04-03T06:10:12.582Z,441.00
2023-04-03T06:11:12.589Z,440.00
2023-04-03T06:12:12.591Z,442.00
2023-04-03T06:13:12.586Z,443.00
2023-04-03T06:14:12.584Z,441.00
2023-04-03T06:15:12.595Z,442.00
2023-04-03T06:16:12.598Z,442.00
2023-04-03T06:17:12.636Z,440.00
2023-04-03T06:18:12.629Z,439.00
2023-04-03T06:19:12.632Z,439.00
2023-04-03T06:20:12.674Z,436.00
2023-04-03T06:21:12.728Z,435.00
2023-04-03T06:22:12.770Z,433.00
2023-04-03T06:23:12.800Z,434.00
2023-04-03T06:24:12.870Z,433.00
2023-04-03T06:25:12.923Z,432.00
2023-04-03T06:26:12.949Z,435.00
2023-04-03T06:27:12.979Z,436.00
2023-04-03T06:28:13.013Z,436.00
2023-04-03T06:29:13.072Z,436.00
2023-04-03T06:30:13.082Z,434.00
2023-04-03T06:31:13.190Z,434.00
2023-04-03T06:32:13.156Z,432.00
2023-04-03T06:33:13.235Z,431.00
2023-04-03T06:34:13.213Z,432.00
2023-04-03T06:35:13.261Z,432.00
2023-04-03T06:36:13.387Z,431.00
2023-04-03T06:37:13.342Z,430.00
2023-04-03T06:38:13.368Z,430.00
2023-04-03T06:39:13.411Z,430.00
2023-04-03T06:40:13.479Z,429.00
2023-04-03T06:41:13.497Z,432.00
2023-04-03T06:42:13.546Z,433.00
2023-04-03T06:43:13.742Z,432.00
2023-04-03T06:44:13.620Z,432.00
2023-04-03T06:45:13.692Z,431.00
2023-04-03T06:46:13.764Z,436.00
2023-04-03T06:47:13.751Z,439.00
2023-04-03T06:48:13.843Z,440.00
2023-04-03T06:49:13.831Z,439.00
2023-04-03T06:50:13.887Z,437.00
2023-04-03T06:51:13.930Z,436.00
2023-04-03T06:52:13.984Z,435.00
2023-04-03T06:53:14.015Z,434.00
2023-04-03T06:54:14.067Z,435.00
2023-04-03T06:55:14.084Z,437.00
2023-04-03T06:56:14.121Z,436.00
2023-04-03T06:57:14.368Z,436.00
2023-04-03T06:58:14.211Z,436.00
2023-04-03T06:59:14.223Z,437.00
2023-04-03T07:00:14.270Z,442.00
2023-04-03T07:01:14.352Z,441.00
2023-04-03T07:02:14.444Z,440.00
2023-04-03T07:03:14.373Z,439.00
2023-04-03T07:04:14.411Z,438.00
2023-04-03T07:05:14.439Z,439.00
2023-04-03T07:06:14.469Z,443.00
2023-04-03T07:07:14.489Z,443.00
2023-04-03T07:08:14.517Z,442.00
2023-04-03T07:09:14.517Z,444.00
2023-04-03T07:10:14.515Z,444.00
2023-04-03T07:11:14.514Z,445.00
2023-04-03T07:12:14.823Z,449.00
2023-04-03T07:13:14.528Z,451.00
2023-04-03T07:14:14.524Z,450.00
2023-04-03T07:15:14.523Z,448.00
2023-04-03T07:16:14.587Z,449.00
2023-04-03T07:17:14.534Z,448.00
2023-04-03T07:18:14.651Z,447.00
2023-04-03T07:19:14.604Z,450.00
2023-04-03T07:20:14.606Z,451.00
2023-04-03T07:21:14.652Z,450.00
2023-04-03T07:22:14.705Z,452.00
2023-04-03T07:23:14.739Z,453.00
2023-04-03T07:24:16.165Z,455.00
2023-04-03T07:25:14.765Z,453.00
2023-04-03T07:26:14.745Z,452.00
2023-04-03T07:27:14.763Z,451.00
2023-04-03T07:28:14.720Z,450.00
2023-04-03T07:29:14.721Z,448.00
2023-04-03T07:30:14.705Z,451.00
2023-04-03T07:31:14.811Z,452.00
2023-04-03T07:32:14.691Z,452.00
2023-04-03T07:33:14.698Z,455.00
2023-04-03T07:34:14.807Z,457.00
2023-04-03T07:35:14.819Z,459.00
2023-04-03T07:36:14.897Z,463.00
2023-04-03T07:37:14.919Z,464.00
2023-04-03T07:38:14.955Z,462.00
2023-04-03T07:39:15.010Z,465.00
2023-04-03T07:40:15.047Z,462.00
2023-04-03T07:41:15.108Z,465.00
2023-04-03T07:42:15.165Z,463.00
2023-04-03T07:43:15.232Z,466.00
2023-04-03T07:44:15.272Z,463.00
2023-04-03T07:45:15.327Z,466.00
2023-04-03T07:46:15.435Z,469.00
2023-04-03T07:47:15.438Z,469.00
2023-04-03T07:48:15.517Z,466.00
2023-04-03T07:49:15.540Z,466.00
2023-04-03T07:50:15.696Z,466.00
2023-04-03T07:51:15.671Z,467.00
2023-04-03T07:52:15.733Z,467.00
2023-04-03T07:53:15.786Z,467.00
2023-04-03T07:54:15.838Z,466.00
2023-04-03T07:55:15.868Z,467.00
2023-04-03T07:56:15.926Z,468.00
2023-04-03T07:57:16.027Z,465.00
2023-04-03T07:58:16.040Z,466.00
2023-04-03T07:59:16.073Z,466.00
2023-04-03T08:00:16.144Z,465.00
2023-04-03T08:01:16.106Z,463.00
2023-04-03T08:02:16.101Z,462.00
2023-04-03T08:03:16.220Z,459.00
2023-04-03T08:04:16.139Z,456.00
2023-04-03T08:05:16.042Z,456.00
2023-04-03T08:06:17.060Z,457.00
2023-04-03T08:07:16.277Z,453.00
2023-04-03T08:08:16.271Z,456.00
2023-04-03T08:09:16.402Z,456.00
2023-04-03T08:10:16.311Z,454.00
2023-04-03T08:11:16.290Z,453.00
2023-04-03T08:12:16.296Z,453.00
2023-04-03T08:13:16.290Z,451.00
2023-04-03T08:14:16.297Z,449.00
2023-04-03T08:15:16.267Z,448.00
2023-04-03T08:16:16.307Z,448.00
2023-04-03T08:17:16.258Z,446.00
2023-04-03T08:18:16.280Z,446.00
2023-04-03T08:19:25.373Z,448.00
2023-04-03T08:20:17.226Z,447.00
2023-04-03T08:21:16.218Z,443.00
2023-04-03T08:22:16.213Z,442.00
2023-04-03T08:23:17.270Z,440.00
2023-04-03T08:24:16.246Z,440.00
2023-04-03T08:25:16.269Z,440.00
2023-04-03T08:26:16.287Z,439.00
2023-04-03T08:27:16.306Z,439.00
2023-04-03T08:28:16.329Z,440.00
2023-04-03T08:29:16.340Z,437.00
2023-04-03T08:30:16.359Z,440.00
2023-04-03T08:31:16.538Z,443.00
2023-04-03T08:32:16.405Z,440.00
2023-04-03T08:33:16.428Z,441.00
2023-04-03T08:34:16.453Z,439.00
2023-04-03T08:35:16.460Z,437.00
2023-04-03T08:36:16.566Z,438.00
2023-04-03T08:37:16.501Z,438.00
2023-04-03T08:38:16.588Z,438.00
2023-04-03T08:39:16.541Z,439.00
2023-04-03T08:40:16.570Z,439.00
2023-04-03T08:41:16.585Z,438.00
2023-04-03T08:42:16.628Z,438.00
2023-04-03T08:43:16.644Z,440.00
2023-04-03T08:44:16.659Z,442.00
2023-04-03T08:45:16.678Z,442.00
2023-04-03T08:46:16.720Z,442.00
2023-04-03T08:47:16.735Z,440.00
2023-04-03T08:48:16.786Z,439.00
2023-04-03T08:49:16.802Z,441.00
2023-04-03T08:50:16.844Z,442.00
2023-04-03T08:51:16.843Z,440.00
2023-04-03T08:52:16.830Z,440.00
2023-04-03T08:53:16.830Z,443.00
2023-04-03T08:54:16.933Z,445.00
2023-04-03T08:55:16.820Z,440.00
2023-04-03T08:56:16.819Z,437.00
2023-04-03T08:57:16.837Z,438.00
2023-04-03T08:58:16.820Z,436.00
2023-04-03T08:59:16.789Z,435.00
2023-04-03T09:00:16.786Z,436.00
2023-04-03T09:01:16.864Z,441.00
2023-04-03T09:02:16.777Z,442.00
2023-04-03T09:03:16.811Z,443.00
2023-04-03T09:04:18.511Z,442.00
2023-04-03T09:05:16.759Z,436.00
2023-04-03T09:06:16.737Z,437.00
2023-04-03T09:07:16.714Z,434.00
2023-04-03T09:08:16.733Z,430.00
2023-04-03T09:09:16.714Z,434.00
2023-04-03T09:10:16.777Z,434.00
2023-04-03T09:11:16.664Z,433.00
2023-04-03T09:12:16.677Z,434.00
2023-04-03T09:13:16.694Z,435.00
2023-04-03T09:14:16.697Z,437.00
2023-04-03T09:15:19.955Z,440.00
2023-04-03T09:16:17.779Z,438.00
2023-04-03T09:17:16.692Z,440.00
2023-04-03T09:18:16.672Z,441.00
2023-04-03T09:19:16.747Z,444.00
2023-04-03T09:20:18.147Z,445.00
2023-04-03T09:21:16.619Z,446.00
2023-04-03T09:22:16.602Z,446.00
2023-04-03T09:23:16.609Z,448.00
2023-04-03T09:24:16.575Z,447.00
2023-04-03T09:25:16.565Z,443.00
2023-04-03T09:26:16.631Z,442.00
2023-04-03T09:27:16.559Z,443.00
2023-04-03T09:28:16.510Z,443.00
2023-04-03T09:29:16.485Z,443.00
2023-04-03T09:30:16.467Z,443.00
2023-04-03T09:31:16.452Z,444.00
2023-04-03T09:32:16.413Z,442.00
2023-04-03T09:33:16.438Z,439.00
2023-04-03T09:34:16.379Z,443.00
2023-04-03T09:35:20.603Z,444.00
2023-04-03T09:36:17.377Z,443.00
2023-04-03T09:37:16.278Z,439.00
2023-04-03T09:38:16.257Z,438.00
2023-04-03T09:39:16.228Z,439.00
2023-04-03T09:40:16.204Z,437.00
2023-04-03T09:41:16.196Z,439.00
2023-04-03T09:42:16.175Z,438.00
2023-04-03T09:43:16.126Z,436.00
2023-04-03T09:44:16.109Z,435.00
2023-04-03T09:45:16.146Z,432.00
2023-04-03T09:46:16.816Z,433.00
2023-04-03T09:47:16.240Z,433.00
2023-04-03T09:48:16.910Z,433.00
2023-04-03T09:49:16.327Z,432.00
2023-04-03T09:50:16.371Z,436.00
2023-04-03T09:51:16.433Z,435.00
2023-04-03T09:52:16.459Z,437.00
2023-04-03T09:53:16.505Z,436.00
2023-04-03T09:54:16.570Z,436.00
2023-04-03T09:55:16.624Z,438.00
2023-04-03T09:56:16.639Z,437.00
2023-04-03T09:57:16.695Z,438.00
2023-04-03T09:58:16.798Z,439.00
2023-04-03T09:59:16.755Z,436.00
2023-04-03T10:00:16.836Z,437.00
2023-04-03T10:01:16.830Z,438.00
2023-04-03T10:02:16.849Z,439.00
2023-04-03T10:03:16.886Z,439.00
2023-04-03T10:04:17.013Z,439.00
2023-04-03T10:05:16.983Z,438.00
2023-04-03T10:06:16.998Z,440.00
2023-04-03T10:07:17.021Z,440.00
2023-04-03T10:08:17.062Z,438.00
2023-04-03T10:09:17.097Z,437.00
2023-04-03T10:10:17.122Z,438.00
2023-04-03T10:11:17.147Z,437.00
2023-04-03T10:12:17.172Z,436.00
2023-04-03T10:13:21.142Z,436.00
2023-04-03T10:14:17.296Z,437.00
2023-04-03T10:15:17.175Z,437.00
2023-04-03T10:16:17.185Z,438.00
2023-04-03T10:17:17.138Z,438.00
2023-04-03T10:18:24.217Z,438.00
2023-04-03T10:19:18.070Z,438.00
2023-04-03T10:20:17.042Z,438.00
2023-04-03T10:21:26.646Z,438.00
2023-04-03T10:22:17.985Z,436.00
2023-04-03T10:23:16.953Z,437.00
2023-04-03T10:24:16.935Z,438.00
2023-04-03T10:25:16.923Z,437.00
2023-04-03T10:26:16.890Z,436.00
2023-04-03T10:27:16.851Z,437.00
2023-04-03T10:28:16.821Z,440.00
2023-04-03T10:29:16.818Z,439.00
2023-04-03T10:30:16.887Z,441.00
2023-04-03T10:31:16.783Z,441.00
2023-04-03T10:32:16.726Z,443.00
2023-04-03T10:33:16.689Z,445.00
2023-04-03T10:34:16.662Z,446.00
2023-04-03T10:35:16.684Z,446.00
2023-04-03T10:36:16.709Z,445.00
2023-04-03T10:37:16.719Z,442.00
2023-04-03T10:38:16.736Z,442.00
2023-04-03T10:39:16.762Z,441.00
2023-04-03T10:40:16.894Z,442.00
2023-04-03T10:41:17.613Z,445.00
2023-04-03T10:42:17.880Z,446.00
2023-04-03T10:43:16.873Z,446.00
2023-04-03T10:44:16.917Z,448.00
2023-04-03T10:45:16.917Z,448.00
2023-04-03T10:46:17.024Z,447.00
2023-04-03T10:47:16.968Z,447.00
2023-04-03T10:48:17.038Z,448.00
2023-04-03T10:49:17.011Z,448.00
2023-04-03T10:50:17.027Z,449.00
2023-04-03T10:51:17.049Z,449.00
2023-04-03T10:52:17.064Z,449.00
2023-04-03T10:53:17.097Z,450.00
2023-04-03T10:54:17.102Z,449.00
2023-04-03T10:55:17.121Z,449.00
2023-04-03T10:56:17.169Z,448.00
2023-04-03T10:57:17.173Z,447.00
2023-04-03T10:58:17.169Z,443.00
2023-04-03T10:59:17.180Z,443.00
2023-04-03T11:00:17.185Z,444.00
2023-04-03T11:01:17.220Z,445.00
2023-04-03T11:02:17.356Z,445.00
2023-04-03T11:03:17.278Z,444.00
2023-04-03T11:04:17.220Z,443.00
2023-04-03T11:05:17.230Z,443.00
2023-04-03T11:06:17.227Z,443.00
2023-04-03T11:07:17.235Z,445.00
2023-04-03T11:08:17.295Z,449.00
2023-04-03T11:09:17.291Z,451.00
2023-04-03T11:10:17.305Z,452.00
2023-04-03T11:11:17.290Z,452.00
2023-04-03T11:12:17.294Z,449.00
2023-04-03T11:13:17.307Z,444.00
2023-04-03T11:14:17.331Z,445.00
2023-04-03T11:15:17.337Z,442.00
2023-04-03T11:16:17.490Z,441.00
2023-04-03T11:17:17.307Z,441.00
2023-04-03T11:18:17.363Z,441.00
2023-04-03T11:19:17.248Z,440.00
2023-04-03T11:20:17.244Z,441.00
2023-04-03T11:21:17.189Z,443.00
2023-04-03T11:22:17.171Z,445.00
2023-04-03T11:23:17.150Z,446.00
2023-04-03T11:24:17.112Z,445.00
2023-04-03T11:25:17.093Z,444.00
2023-04-03T11:26:17.065Z,444.00
2023-04-03T11:27:17.040Z,444.00
2023-04-03T11:28:17.021Z,442.00
2023-04-03T11:29:28.253Z,440.00
2023-04-03T11:30:17.944Z,439.00
2023-04-03T11:31:16.998Z,436.00
2023-04-03T11:32:16.865Z,437.00
2023-04-03T11:33:16.836Z,439.00
2023-04-03T11:34:16.895Z,439.00
2023-04-03T11:35:16.773Z,438.00
2023-04-03T11:36:25.571Z,440.00
2023-04-03T11:37:17.721Z,443.00
2023-04-03T11:38:16.678Z,444.00
2023-04-03T11:39:16.674Z,443.00
2023-04-03T11:40:16.623Z,442.00
2023-04-03T11:41:16.602Z,444.00
2023-04-03T11:42:16.595Z,444.00
2023-04-03T11:43:16.528Z,440.00
2023-04-03T11:44:16.503Z,438.00
2023-04-03T11:45:16.469Z,438.00
2023-04-03T11:46:16.483Z,438.00
2023-04-03T11:47:16.413Z,438.00
2023-04-03T11:48:24.558Z,437.00
2023-04-03T11:49:17.355Z,438.00
2023-04-03T11:50:16.411Z,438.00
2023-04-03T11:51:16.270Z,440.00
2023-04-03T11:52:16.242Z,441.00
2023-04-03T11:53:16.201Z,440.00
2023-04-03T11:54:16.175Z,440.00
2023-04-03T11:55:16.127Z,440.00
2023-04-03T11:56:16.108Z,443.00
2023-04-03T11:57:16.105Z,442.00
2023-04-03T11:58:16.013Z,443.00
2023-04-03T11:59:15.969Z,443.00
2023-04-03T12:00:15.939Z,444.00
2023-04-03T12:01:15.917Z,444.00
2023-04-03T12:02:15.931Z,444.00
2023-04-03T12:03:15.894Z,445.00
2023-04-03T12:04:15.931Z,446.00
2023-04-03T12:05:15.790Z,444.00
2023-04-03T12:06:15.838Z,444.00
2023-04-03T12:07:15.711Z,445.00
2023-04-03T12:08:15.687Z,444.00
2023-04-03T12:09:15.662Z,446.00
2023-04-03T12:10:21.617Z,445.00
2023-04-03T12:11:16.610Z,446.00
2023-04-03T12:12:15.558Z,446.00
2023-04-03T12:13:15.546Z,446.00
2023-04-03T12:14:15.504Z,445.00
2023-04-03T12:15:15.488Z,444.00
2023-04-03T12:16:15.512Z,444.00
2023-04-03T12:17:15.444Z,442.00
2023-04-03T12:18:15.357Z,441.00
2023-04-03T12:19:15.330Z,442.00
2023-04-03T12:20:15.274Z,441.00
2023-04-03T12:21:15.243Z,442.00
2023-04-03T12:22:15.306Z,446.00
2023-04-03T12:23:15.164Z,446.00
2023-04-03T12:24:15.124Z,445.00
2023-04-03T12:25:15.103Z,445.00
2023-04-03T12:26:15.061Z,443.00
2023-04-03T12:27:15.036Z,444.00
2023-04-03T12:28:15.000Z,446.00
2023-04-03T12:29:14.994Z,446.00
2023-04-03T12:30:14.936Z,444.00